Cuauhtémoc — XCBF — position and weather

sailwx.info

Track history (hours):
 
Tides and Currents Weather Stations Pressure Air Temp Water Temp Dewpoint Dewpoint Depression Visibility Wind Speed Wind Dir Waves Ship Positions

Cuauhtémoc

Last reported at 2019-Aug-23 07:59 UTC. Time now 2019-Aug-24 07:40 UTC.
Position N 53°33' E 009°59'.

Length 90 m; draft 5.4 m.

MMSI: 345186001.

Date/timePositionNaut miles runAvg speedWind from/ knotsBaromVisibWave heightAir tempDewpointWater temp
2019-Aug-23 07:59N 53°33' E 009°59'0 0.0
2019-Aug-23 07:31N 53°33' E 009°59'0 0.0
2019-Aug-23 07:00N 53°33' E 009°59'1 2.1
2019-Aug-23 06:30N 53°33' E 009°57'4 8.1
2019-Aug-23 06:00N 53°33' E 009°50'5 9.5
2019-Aug-23 05:30N 53°34' E 009°42'611.6
2019-Aug-23 05:00N 53°37' E 009°34'611.9
2019-Aug-23 04:30N 53°42' E 009°29'611.9
2019-Aug-23 04:00N 53°47' E 009°23'611.9
2019-Aug-23 03:29N 53°52' E 009°17'511.1
2019-Aug-23 02:59N 53°53' E 009°08'4 8.5
2019-Aug-23 02:29N 53°51' E 009°01'510.4
2019-Aug-23 02:00N 53°50' E 008°53'9 9.9
2019-Aug-23 01:03N 53°56' E 008°40'011.8
2019-Aug-23 01:00N 53°56' E 008°39'  
2019-Aug-20 18:58N 57°21' E 007°44'3 4.6
2019-Aug-20 18:23N 57°24' E 007°42'2 3.6
2019-Aug-20 17:43N 57°26' E 007°41'0 2.2
2019-Aug-20 17:29N 57°27' E 007°41'1 2.8
2019-Aug-20 17:00N 57°28' E 007°41'2 3.7
2019-Aug-20 16:30N 57°30' E 007°39'2 3.6
2019-Aug-20 15:59N 57°31' E 007°37'1 2.8
2019-Aug-20 15:30N 57°32' E 007°36'1 2.6
2019-Aug-20 15:00N 57°34' E 007°35'2 3.2
2019-Aug-20 14:29N 57°35' E 007°34'2 4.1
2019-Aug-20 14:00N 57°37' E 007°33'2 4.5
2019-Aug-20 13:30N 57°39' E 007°31'1 2.4
2019-Aug-20 13:00N 57°40' E 007°29'2 3.3
2019-Aug-20 12:30N 57°38' E 007°30'2 3.8
2019-Aug-20 12:00N 57°37' E 007°32'2 3.6
2019-Aug-20 11:30N 57°35' E 007°34'2 3.5
2019-Aug-20 11:00N 57°33' E 007°35'2 3.8
2019-Aug-20 10:30N 57°32' E 007°37'2 4.6
2019-Aug-20 10:00N 57°30' E 007°39'3 6.1
2019-Aug-20 09:28N 57°27' E 007°43'2 4.9
2019-Aug-20 08:59N 57°25' E 007°45'2 5.0
2019-Aug-20 08:30N 57°26' E 007°49'4 7.1
2019-Aug-20 07:59N 57°28' E 007°54'11 7.2
2019-Aug-20 06:31N 57°34' E 008°11'0 8.0
2019-Aug-20 06:29N 57°34' E 008°11'4 7.4
2019-Aug-20 05:59N 57°36' E 008°17'4 7.2
2019-Aug-20 05:25N 57°39' E 008°23'3 7.3
2019-Aug-20 05:00N 57°41' E 008°28'3 6.9
2019-Aug-20 04:30N 57°43' E 008°33'4 6.8
2019-Aug-20 03:59N 57°45' E 008°38'3 6.5
2019-Aug-20 03:30N 57°46' E 008°43'3 6.6
2019-Aug-20 03:00N 57°48' E 008°48'3 6.5
2019-Aug-20 02:30N 57°50' E 008°53'5 6.7
2019-Aug-20 01:46N 57°53' E 009°01'2 7.1
2019-Aug-20 01:29N 57°54' E 009°04'4 7.0
2019-Aug-20 00:54N 57°56' E 009°10'3 6.7
2019-Aug-20 00:30N 57°58' E 009°14'3 6.7
2019-Aug-20 00:00N 58°00' E 009°19'3 6.4
2019-Aug-19 23:30N 58°02' E 009°24'3 6.5
2019-Aug-19 23:00N 58°04' E 009°29'3 6.4
2019-Aug-19 22:30N 58°06' E 009°34'3 6.3
2019-Aug-19 22:00N 58°08' E 009°39'3 6.1
2019-Aug-19 21:29N 58°09' E 009°44'3 5.9
2019-Aug-19 20:59N 58°11' E 009°49'3 5.9
2019-Aug-19 20:29N 58°12' E 009°53'3 5.9
2019-Aug-19 20:00N 58°14' E 009°58'3 5.0
2019-Aug-19 19:29N 58°15' E 010°02'3 5.6
2019-Aug-19 19:00N 58°16' E 010°07'3 6.4
2019-Aug-19 18:30N 58°18' E 010°12'3 5.7
2019-Aug-19 18:00N 58°19' E 010°17'3 5.0
2019-Aug-19 17:29N 58°22' E 010°15'2 3.2
2019-Aug-19 17:00N 58°23' E 010°14'3 6.3
2019-Aug-19 16:29N 58°25' E 010°10'4 8.6
2019-Aug-19 16:00N 58°28' E 010°03'5 9.4
2019-Aug-19 15:30N 58°31' E 009°56'3 6.5
2019-Aug-19 15:00N 58°31' E 009°50'5 9.8
2019-Aug-19 14:30N 58°27' E 009°56'5 9.7
2019-Aug-19 14:00N 58°23' E 010°02'5 9.3
2019-Aug-19 13:30N 58°20' E 010°08'4 8.7
2019-Aug-19 13:00N 58°16' E 010°12'4 8.5
2019-Aug-19 12:30N 58°12' E 010°16'4 6.9
2019-Aug-19 11:56N 58°09' E 010°21'2 5.3
2019-Aug-19 11:29N 58°07' E 010°24'22 7.9
2019-Aug-19 08:43N 57°49' E 010°47'210.7
2019-Aug-19 08:30N 57°48' E 010°50'510.6
2019-Aug-19 08:00N 57°44' E 010°56'611.7
2019-Aug-19 07:30N 57°39' E 011°04'4 7.1
2019-Aug-19 07:00N 57°37' E 011°08'5 9.8
2019-Aug-19 06:30N 57°33' E 011°15'5 9.7
2019-Aug-19 06:00N 57°30' E 011°21'5 9.7
2019-Aug-19 05:30N 57°26' E 011°26'5 9.8
2019-Aug-19 05:00N 57°21' E 011°30'510.3
2019-Aug-19 04:30N 57°16' E 011°33'510.6
2019-Aug-19 04:00N 57°12' E 011°37'124 9.2
2019-Aug-18 14:30N 55°09' E 011°03'510.1
2019-Aug-18 14:00N 55°04' E 011°02'510.2
2019-Aug-18 13:30N 54°59' E 011°01'510.3
2019-Aug-18 13:00N 54°55' E 010°55'510.1
2019-Aug-18 12:30N 54°50' E 010°52'5 9.7
2019-Aug-18 12:00N 54°45' E 010°53'5 9.0
2019-Aug-18 11:29N 54°41' E 010°51'510.3
2019-Aug-18 10:58N 54°37' E 010°44'610.1
2019-Aug-18 10:24N 54°34' E 010°37'1110.0
2019-Aug-18 09:16N 54°30' E 010°18'2 8.5
2019-Aug-18 08:59N 54°28' E 010°15'510.2
2019-Aug-18 08:30N 54°23' E 010°12'3 5.9
2019-Aug-18 08:00N 54°21' E 010°09'0 0.0
2019-Aug-18 07:00N 54°21' E 010°09'0 0.0
2019-Aug-18 06:29N 54°21' E 010°09'0 0.0
2019-Aug-18 06:00N 54°21' E 010°09'0 0.0
2019-Aug-18 05:30N 54°21' E 010°09'0 0.0
2019-Aug-18 05:00N 54°21' E 010°09'0 0.0
2019-Aug-18 04:30N 54°21' E 010°09'  
2019-Aug-13 09:49N 54°21' E 010°09'0 0.0
2019-Aug-13 09:30N 54°21' E 010°09'0 0.0
2019-Aug-13 09:00N 54°21' E 010°09'0 0.0
2019-Aug-13 08:30N 54°21' E 010°09'  
Track history (hours):
 
Tides and Currents Weather Stations Pressure Air Temp Water Temp Dewpoint Dewpoint Depression Visibility Wind Speed Wind Dir Waves Ship Positions

Cuauhtémoc

Last reported at 2019-Aug-23 07:59 UTC. Time now 2019-Aug-24 07:40 UTC.
Position N 53°33' E 009°59'.

Length 90 m; draft 5.4 m.

MMSI: 345186001.

Date/timePositionNaut miles runAvg speedWind from/ knotsBaromVisibWave heightAir tempDewpointWater temp
2019-Aug-23 07:59N 53°33' E 009°59'0 0.0
2019-Aug-23 07:31N 53°33' E 009°59'0 0.0
2019-Aug-23 07:00N 53°33' E 009°59'1 2.1
2019-Aug-23 06:30N 53°33' E 009°57'4 8.1
2019-Aug-23 06:00N 53°33' E 009°50'5 9.5
2019-Aug-23 05:30N 53°34' E 009°42'611.6
2019-Aug-23 05:00N 53°37' E 009°34'611.9
2019-Aug-23 04:30N 53°42' E 009°29'611.9
2019-Aug-23 04:00N 53°47' E 009°23'611.9
2019-Aug-23 03:29N 53°52' E 009°17'511.1
2019-Aug-23 02:59N 53°53' E 009°08'4 8.5
2019-Aug-23 02:29N 53°51' E 009°01'510.4
2019-Aug-23 02:00N 53°50' E 008°53'9 9.9
2019-Aug-23 01:03N 53°56' E 008°40'011.8
2019-Aug-23 01:00N 53°56' E 008°39'  
2019-Aug-20 18:58N 57°21' E 007°44'3 4.6
2019-Aug-20 18:23N 57°24' E 007°42'2 3.6
2019-Aug-20 17:43N 57°26' E 007°41'0 2.2
2019-Aug-20 17:29N 57°27' E 007°41'1 2.8
2019-Aug-20 17:00N 57°28' E 007°41'2 3.7
2019-Aug-20 16:30N 57°30' E 007°39'2 3.6
2019-Aug-20 15:59N 57°31' E 007°37'1 2.8
2019-Aug-20 15:30N 57°32' E 007°36'1 2.6
2019-Aug-20 15:00N 57°34' E 007°35'2 3.2
2019-Aug-20 14:29N 57°35' E 007°34'2 4.1
2019-Aug-20 14:00N 57°37' E 007°33'2 4.5
2019-Aug-20 13:30N 57°39' E 007°31'1 2.4
2019-Aug-20 13:00N 57°40' E 007°29'2 3.3
2019-Aug-20 12:30N 57°38' E 007°30'2 3.8
2019-Aug-20 12:00N 57°37' E 007°32'2 3.6
2019-Aug-20 11:30N 57°35' E 007°34'2 3.5
2019-Aug-20 11:00N 57°33' E 007°35'2 3.8
2019-Aug-20 10:30N 57°32' E 007°37'2 4.6
2019-Aug-20 10:00N 57°30' E 007°39'3 6.1
2019-Aug-20 09:28N 57°27' E 007°43'2 4.9
2019-Aug-20 08:59N 57°25' E 007°45'2 5.0
2019-Aug-20 08:30N 57°26' E 007°49'4 7.1
2019-Aug-20 07:59N 57°28' E 007°54'11 7.2
2019-Aug-20 06:31N 57°34' E 008°11'0 8.0
2019-Aug-20 06:29N 57°34' E 008°11'4 7.4
2019-Aug-20 05:59N 57°36' E 008°17'4 7.2
2019-Aug-20 05:25N 57°39' E 008°23'3 7.3
2019-Aug-20 05:00N 57°41' E 008°28'3 6.9
2019-Aug-20 04:30N 57°43' E 008°33'4 6.8
2019-Aug-20 03:59N 57°45' E 008°38'3 6.5
2019-Aug-20 03:30N 57°46' E 008°43'3 6.6
2019-Aug-20 03:00N 57°48' E 008°48'3 6.5
2019-Aug-20 02:30N 57°50' E 008°53'5 6.7
2019-Aug-20 01:46N 57°53' E 009°01'2 7.1
2019-Aug-20 01:29N 57°54' E 009°04'4 7.0
2019-Aug-20 00:54N 57°56' E 009°10'3 6.7
2019-Aug-20 00:30N 57°58' E 009°14'3 6.7
2019-Aug-20 00:00N 58°00' E 009°19'3 6.4
2019-Aug-19 23:30N 58°02' E 009°24'3 6.5
2019-Aug-19 23:00N 58°04' E 009°29'3 6.4
2019-Aug-19 22:30N 58°06' E 009°34'3 6.3
2019-Aug-19 22:00N 58°08' E 009°39'3 6.1
2019-Aug-19 21:29N 58°09' E 009°44'3 5.9
2019-Aug-19 20:59N 58°11' E 009°49'3 5.9
2019-Aug-19 20:29N 58°12' E 009°53'3 5.9
2019-Aug-19 20:00N 58°14' E 009°58'3 5.0
2019-Aug-19 19:29N 58°15' E 010°02'3 5.6
2019-Aug-19 19:00N 58°16' E 010°07'3 6.4
2019-Aug-19 18:30N 58°18' E 010°12'3 5.7
2019-Aug-19 18:00N 58°19' E 010°17'3 5.0
2019-Aug-19 17:29N 58°22' E 010°15'2 3.2
2019-Aug-19 17:00N 58°23' E 010°14'3 6.3
2019-Aug-19 16:29N 58°25' E 010°10'4 8.6
2019-Aug-19 16:00N 58°28' E 010°03'5 9.4
2019-Aug-19 15:30N 58°31' E 009°56'3 6.5
2019-Aug-19 15:00N 58°31' E 009°50'5 9.8
2019-Aug-19 14:30N 58°27' E 009°56'5 9.7
2019-Aug-19 14:00N 58°23' E 010°02'5 9.3
2019-Aug-19 13:30N 58°20' E 010°08'4 8.7
2019-Aug-19 13:00N 58°16' E 010°12'4 8.5
2019-Aug-19 12:30N 58°12' E 010°16'4 6.9
2019-Aug-19 11:56N 58°09' E 010°21'2 5.3
2019-Aug-19 11:29N 58°07' E 010°24'22 7.9
2019-Aug-19 08:43N 57°49' E 010°47'210.7
2019-Aug-19 08:30N 57°48' E 010°50'510.6
2019-Aug-19 08:00N 57°44' E 010°56'611.7
2019-Aug-19 07:30N 57°39' E 011°04'4 7.1
2019-Aug-19 07:00N 57°37' E 011°08'5 9.8
2019-Aug-19 06:30N 57°33' E 011°15'5 9.7
2019-Aug-19 06:00N 57°30' E 011°21'5 9.7
2019-Aug-19 05:30N 57°26' E 011°26'5 9.8
2019-Aug-19 05:00N 57°21' E 011°30'510.3
2019-Aug-19 04:30N 57°16' E 011°33'510.6
2019-Aug-19 04:00N 57°12' E 011°37'124 9.2
2019-Aug-18 14:30N 55°09' E 011°03'510.1
2019-Aug-18 14:00N 55°04' E 011°02'510.2
2019-Aug-18 13:30N 54°59' E 011°01'510.3
2019-Aug-18 13:00N 54°55' E 010°55'510.1
2019-Aug-18 12:30N 54°50' E 010°52'5 9.7
2019-Aug-18 12:00N 54°45' E 010°53'5 9.0
2019-Aug-18 11:29N 54°41' E 010°51'510.3
2019-Aug-18 10:58N 54°37' E 010°44'610.1
2019-Aug-18 10:24N 54°34' E 010°37'1110.0
2019-Aug-18 09:16N 54°30' E 010°18'2 8.5
2019-Aug-18 08:59N 54°28' E 010°15'510.2
2019-Aug-18 08:30N 54°23' E 010°12'3 5.9
2019-Aug-18 08:00N 54°21' E 010°09'0 0.0
2019-Aug-18 07:00N 54°21' E 010°09'0 0.0
2019-Aug-18 06:29N 54°21' E 010°09'0 0.0
2019-Aug-18 06:00N 54°21' E 010°09'0 0.0
2019-Aug-18 05:30N 54°21' E 010°09'0 0.0
2019-Aug-18 05:00N 54°21' E 010°09'0 0.0
2019-Aug-18 04:30N 54°21' E 010°09'  
2019-Aug-13 09:49N 54°21' E 010°09'0 0.0
2019-Aug-13 09:30N 54°21' E 010°09'0 0.0
2019-Aug-13 09:00N 54°21' E 010°09'0 0.0
2019-Aug-13 08:30N 54°21' E 010°09'  

Dump ship's entire track history